McCall, Louisiana
Current Conditions -  °F | °C
As of 12:15 PM on Thursday 30 Oct 2014 (Local Time) from KL38 Reporting Station
Clear Clear  
Wind Chill: 71°   Ceiling: Unl
Heat Index: 71°   Visibility: 10mi
Dew Point: 43°   Wind: 7mph
Humidity: 36%   Direction: 50°NE
Pressure: 30.11"   Gusts: NA
Location:  30.1206°N, 91.0306°W
Report Text: KL38 301715Z AUTO 05006KT 10SM CLR 22/06 A3011 RMK AO2 T02150060
Loading
Personal Weather Stations






























Interactive Weather Map
Tropical Storm Tracking
New forecast layout! Learn more

10-Day Weather Forecast

Advertisements
Track Severe Weather on mobile